createdAt,value
2017-12-09T00:01:58.935Z,2.90
2017-12-09T00:04:27.287Z,3.27
2017-12-09T00:06:55.847Z,3.30
2017-12-09T00:09:24.204Z,3.07
2017-12-09T00:11:52.529Z,2.43
2017-12-09T00:14:20.888Z,4.07
2017-12-09T00:16:49.358Z,2.70
2017-12-09T00:19:17.706Z,2.17
2017-12-09T00:21:46.033Z,2.60
2017-12-09T00:24:14.382Z,4.10
2017-12-09T00:26:42.696Z,3.50
2017-12-09T00:29:11.048Z,4.40
2017-12-09T00:31:39.508Z,5.07
2017-12-09T00:34:07.835Z,4.43
2017-12-09T00:36:36.325Z,3.40
2017-12-09T00:39:04.962Z,3.93
2017-12-09T00:41:34.133Z,3.00
2017-12-09T00:44:04.228Z,2.63
2017-12-09T00:46:32.569Z,2.77
2017-12-09T00:49:04.628Z,3.27
2017-12-09T00:51:35.478Z,3.33
2017-12-09T00:54:06.959Z,4.70
2017-12-09T00:56:35.378Z,4.93
2017-12-09T00:59:07.507Z,3.63
2017-12-09T01:01:35.867Z,3.60
2017-12-09T01:04:05.081Z,5.37
2017-12-09T01:06:33.587Z,6.47
2017-12-09T01:09:02.425Z,5.27
2017-12-09T01:11:30.816Z,5.20
2017-12-09T01:13:59.113Z,4.70
2017-12-09T01:16:39.165Z,6.27
2017-12-09T01:19:07.845Z,5.40
2017-12-09T01:21:36.184Z,4.77
2017-12-09T01:24:04.572Z,4.97
2017-12-09T01:26:33.155Z,3.97
2017-12-09T01:29:01.523Z,4.20
2017-12-09T01:31:30.072Z,4.07
2017-12-09T01:33:58.375Z,4.73
2017-12-09T01:36:26.726Z,4.83
2017-12-09T01:38:55.124Z,4.33
2017-12-09T01:41:24.726Z,3.90
2017-12-09T01:43:53.431Z,4.47
2017-12-09T01:46:21.797Z,5.43
2017-12-09T01:48:50.262Z,5.30
2017-12-09T01:51:18.663Z,5.43
2017-12-09T01:53:46.982Z,4.20
2017-12-09T01:56:15.347Z,6.40
2017-12-09T01:58:43.722Z,5.33
2017-12-09T02:01:12.893Z,5.47
2017-12-09T02:03:41.212Z,4.87
2017-12-09T02:06:11.496Z,3.80
2017-12-09T02:08:40.636Z,4.27
2017-12-09T02:11:08.941Z,4.00
2017-12-09T02:13:37.310Z,5.73
2017-12-09T02:16:05.657Z,5.10
2017-12-09T02:18:33.975Z,5.57
2017-12-09T02:21:02.316Z,5.70
2017-12-09T02:23:30.727Z,6.00
2017-12-09T02:25:59.065Z,5.73
2017-12-09T02:28:27.602Z,4.70
2017-12-09T02:30:55.942Z,4.90
2017-12-09T02:33:24.262Z,4.40
2017-12-09T02:35:52.888Z,4.63
2017-12-09T02:38:21.221Z,4.40
2017-12-09T02:40:49.553Z,4.30
2017-12-09T02:43:17.908Z,5.43
2017-12-09T02:45:46.257Z,4.40
2017-12-09T02:48:14.648Z,4.60
2017-12-09T02:50:43.017Z,4.93
2017-12-09T02:53:11.333Z,5.43
2017-12-09T02:55:39.674Z,4.70
2017-12-09T02:58:08.017Z,4.70
2017-12-09T03:00:36.396Z,4.83
2017-12-09T03:03:04.753Z,3.53
2017-12-09T03:05:33.122Z,4.00
2017-12-09T03:08:01.535Z,5.10
2017-12-09T03:10:30.122Z,4.90
2017-12-09T03:12:59.382Z,4.97
2017-12-09T03:15:27.676Z,4.30
2017-12-09T03:17:56.002Z,6.33
2017-12-09T03:20:24.341Z,5.10
2017-12-09T03:22:52.672Z,5.30
2017-12-09T03:25:21.034Z,4.00
2017-12-09T03:27:50.066Z,4.30
2017-12-09T03:30:18.402Z,5.80
2017-12-09T03:32:46.753Z,4.77
2017-12-09T03:35:15.077Z,4.70
2017-12-09T03:37:43.432Z,5.00
2017-12-09T03:40:11.760Z,4.60
2017-12-09T03:42:40.091Z,4.43
2017-12-09T03:45:08.417Z,4.60
2017-12-09T03:47:36.743Z,4.20
2017-12-09T03:50:05.115Z,4.07
2017-12-09T03:52:33.972Z,3.47
2017-12-09T03:55:02.293Z,4.70
2017-12-09T03:57:30.677Z,5.30
2017-12-09T03:59:58.983Z,4.53
2017-12-09T04:02:27.338Z,4.20
2017-12-09T04:04:55.674Z,4.30
2017-12-09T04:07:24.009Z,4.80
2017-12-09T04:09:52.357Z,4.70
2017-12-09T04:12:20.799Z,4.00
2017-12-09T04:14:49.097Z,4.17
2017-12-09T04:17:17.437Z,4.53
2017-12-09T04:19:45.812Z,4.23
2017-12-09T04:22:14.196Z,4.23
2017-12-09T04:24:42.522Z,4.50
2017-12-09T04:27:10.836Z,5.63
2017-12-09T04:29:39.204Z,4.10
2017-12-09T04:32:07.536Z,5.30
2017-12-09T04:34:35.883Z,4.97
2017-12-09T04:37:04.208Z,4.33
2017-12-09T04:39:32.545Z,4.00
2017-12-09T04:42:00.903Z,4.37
2017-12-09T04:44:29.243Z,3.23
2017-12-09T04:46:57.536Z,3.87
2017-12-09T04:49:26.240Z,4.20
2017-12-09T04:51:54.547Z,4.37
2017-12-09T04:54:23.008Z,4.17
2017-12-09T04:56:51.371Z,4.47
2017-12-09T04:59:19.699Z,3.90
2017-12-09T05:01:48.015Z,3.97
2017-12-09T05:04:16.373Z,3.80
2017-12-09T05:06:44.694Z,3.53
2017-12-09T05:09:13.032Z,3.60
2017-12-09T05:11:41.382Z,3.17
2017-12-09T05:14:10.704Z,3.80
2017-12-09T05:16:39.032Z,3.17
2017-12-09T05:19:07.356Z,3.10
2017-12-09T05:21:35.691Z,4.00
2017-12-09T05:24:04.020Z,3.57
2017-12-09T05:26:32.356Z,3.37
2017-12-09T05:29:00.692Z,2.63
2017-12-09T05:31:29.071Z,3.17
2017-12-09T05:33:57.459Z,3.17
2017-12-09T05:36:25.831Z,3.83
2017-12-09T05:38:54.199Z,3.63
2017-12-09T05:41:22.582Z,3.27
2017-12-09T05:43:50.968Z,3.13
2017-12-09T05:46:19.305Z,4.00
2017-12-09T05:48:47.662Z,3.63
2017-12-09T05:51:15.975Z,3.70
2017-12-09T05:53:44.368Z,3.10
2017-12-09T05:56:12.677Z,4.33
2017-12-09T05:58:41.024Z,3.10
2017-12-09T06:01:09.336Z,2.97
2017-12-09T06:03:37.677Z,3.37
2017-12-09T06:06:06.034Z,3.10
2017-12-09T06:08:34.378Z,3.97
2017-12-09T06:11:02.754Z,3.87
2017-12-09T06:13:31.081Z,3.90
2017-12-09T06:15:59.399Z,4.17
2017-12-09T06:18:27.764Z,4.03
2017-12-09T06:20:56.170Z,3.17
2017-12-09T06:23:25.691Z,3.63
2017-12-09T06:25:54.018Z,3.73
2017-12-09T06:28:22.351Z,3.53
2017-12-09T06:30:50.777Z,3.97
2017-12-09T06:33:19.137Z,3.27
2017-12-09T06:35:47.490Z,3.57
2017-12-09T06:38:15.854Z,4.20
2017-12-09T06:40:44.196Z,3.50
2017-12-09T06:43:12.599Z,3.77
2017-12-09T06:45:40.933Z,3.20
2017-12-09T06:48:09.245Z,3.10
2017-12-09T06:50:37.749Z,3.03
2017-12-09T06:53:06.094Z,3.57
2017-12-09T06:55:34.426Z,4.00
2017-12-09T06:58:02.786Z,3.60
2017-12-09T07:00:31.104Z,4.37
2017-12-09T07:02:59.435Z,4.27
2017-12-09T07:05:27.846Z,4.47
2017-12-09T07:07:56.171Z,3.50
2017-12-09T07:10:24.538Z,3.73
2017-12-09T07:12:52.978Z,4.37
2017-12-09T07:15:21.308Z,3.33
2017-12-09T07:17:49.671Z,4.10
2017-12-09T07:20:18.013Z,3.30
2017-12-09T07:22:46.467Z,4.33
2017-12-09T07:25:14.782Z,3.93
2017-12-09T07:27:43.092Z,3.93
2017-12-09T07:30:11.437Z,3.50
2017-12-09T07:32:39.775Z,4.07
2017-12-09T07:35:08.163Z,3.87
2017-12-09T07:37:36.495Z,4.30
2017-12-09T07:40:04.816Z,4.60
2017-12-09T07:42:33.203Z,4.87
2017-12-09T07:45:01.589Z,3.90
2017-12-09T07:47:31.518Z,3.20
2017-12-09T07:49:59.869Z,4.20
2017-12-09T07:52:28.241Z,3.90
2017-12-09T07:54:56.576Z,3.17
2017-12-09T07:57:24.916Z,4.07
2017-12-09T07:59:53.286Z,3.30
2017-12-09T08:02:21.812Z,5.03
2017-12-09T08:04:50.177Z,4.13
2017-12-09T08:07:19.380Z,4.47
2017-12-09T08:09:47.763Z,3.60
2017-12-09T08:12:16.297Z,5.53
2017-12-09T08:14:44.716Z,4.60
2017-12-09T08:17:13.101Z,4.00
2017-12-09T08:19:41.472Z,4.63
2017-12-09T08:22:09.791Z,6.03
2017-12-09T08:24:38.220Z,5.50
2017-12-09T08:27:06.562Z,3.30
2017-12-09T08:29:35.530Z,4.20
2017-12-09T08:32:03.868Z,3.27
2017-12-09T08:34:32.212Z,4.30
2017-12-09T08:37:00.617Z,3.60
2017-12-09T08:39:29.217Z,3.63
2017-12-09T08:42:02.288Z,4.40
2017-12-09T08:44:30.700Z,4.23
2017-12-09T08:46:59.163Z,4.10
2017-12-09T08:49:27.647Z,3.97
2017-12-09T08:51:58.632Z,4.30
2017-12-09T08:54:27.932Z,5.30
2017-12-09T08:56:56.504Z,3.30
2017-12-09T08:59:24.960Z,3.87
2017-12-09T09:01:53.318Z,3.53
2017-12-09T09:04:21.672Z,4.60
2017-12-09T09:06:50.015Z,4.07
2017-12-09T09:09:18.529Z,4.07
2017-12-09T09:11:46.910Z,3.70
2017-12-09T09:14:15.336Z,4.53
2017-12-09T09:16:43.749Z,3.83
2017-12-09T09:19:12.952Z,3.63
2017-12-09T09:21:41.990Z,4.10
2017-12-09T09:24:12.147Z,4.37
2017-12-09T09:26:40.611Z,4.03
2017-12-09T09:29:11.249Z,4.60
2017-12-09T09:31:40.314Z,3.07
2017-12-09T09:34:08.780Z,4.30
2017-12-09T09:36:37.543Z,3.87
2017-12-09T09:39:05.914Z,4.40
2017-12-09T09:41:34.409Z,3.70
2017-12-09T09:44:02.885Z,3.20
2017-12-09T09:46:31.562Z,4.40
2017-12-09T09:48:59.904Z,3.60
2017-12-09T09:51:28.305Z,2.90
2017-12-09T09:53:56.677Z,3.10
2017-12-09T09:56:25.024Z,3.53
2017-12-09T09:58:53.330Z,2.77
2017-12-09T10:01:21.678Z,4.37
2017-12-09T10:03:50.026Z,3.37
2017-12-09T10:06:18.446Z,3.70
2017-12-09T10:08:46.811Z,3.70
2017-12-09T10:11:15.217Z,3.50
2017-12-09T10:13:43.556Z,2.70
2017-12-09T10:16:12.018Z,3.87
2017-12-09T10:18:40.484Z,3.73
2017-12-09T10:21:10.598Z,3.10
2017-12-09T10:23:39.197Z,2.97
2017-12-09T10:26:07.926Z,3.53
2017-12-09T10:28:36.413Z,2.40
2017-12-09T10:33:37.402Z,3.10
2017-12-09T10:36:05.773Z,2.67
2017-12-09T10:38:34.207Z,2.50
2017-12-09T10:41:02.573Z,2.90
2017-12-09T10:43:31.080Z,2.77
2017-12-09T10:46:01.083Z,2.33
2017-12-09T10:48:29.534Z,2.40
2017-12-09T10:56:05.373Z,1.63
2017-12-09T10:58:33.912Z,1.70
2017-12-09T11:01:02.565Z,1.80
2017-12-09T11:03:31.712Z,2.30
2017-12-09T11:06:13.285Z,2.57
2017-12-09T11:08:41.914Z,2.53
2017-12-09T11:11:13.989Z,2.93
2017-12-09T11:13:45.930Z,3.00
2017-12-09T11:16:15.963Z,3.40
2017-12-09T11:18:44.458Z,2.37
2017-12-09T11:21:13.706Z,2.23
2017-12-09T11:23:43.895Z,2.97
2017-12-09T11:26:16.985Z,2.67
2017-12-09T11:28:46.338Z,2.03
2017-12-09T11:31:14.861Z,2.60
2017-12-09T11:36:15.764Z,3.83
2017-12-09T11:38:46.292Z,2.27
2017-12-09T11:41:15.398Z,2.73
2017-12-09T11:43:44.636Z,5.50
2017-12-09T11:46:13.068Z,3.60
2017-12-09T11:48:41.627Z,2.97
2017-12-09T11:56:15.417Z,2.60
2017-12-09T11:58:44.043Z,2.57
2017-12-09T12:03:49.733Z,3.70
2017-12-09T12:06:18.165Z,2.27
2017-12-09T12:08:48.272Z,2.33
2017-12-09T12:11:16.807Z,2.43
2017-12-09T12:13:45.444Z,2.80
2017-12-09T12:16:13.975Z,2.53
2017-12-09T12:26:20.388Z,1.80
2017-12-09T12:33:55.023Z,2.73
2017-12-09T12:36:23.418Z,1.90
2017-12-09T12:38:51.916Z,3.30
2017-12-09T12:41:20.295Z,2.53
2017-12-09T12:43:48.693Z,1.77
2017-12-09T12:46:17.271Z,1.87
2017-12-09T12:48:45.775Z,2.50
2017-12-09T12:51:18.259Z,3.13
2017-12-09T12:53:46.729Z,2.90
2017-12-09T12:56:15.064Z,2.40
2017-12-09T12:58:43.384Z,2.53
2017-12-09T13:01:11.873Z,1.90
2017-12-09T13:03:40.891Z,5.40
2017-12-09T13:06:09.234Z,2.57
2017-12-09T13:08:40.950Z,2.70
2017-12-09T13:11:09.398Z,2.40
2017-12-09T13:13:37.836Z,2.80
2017-12-09T13:16:06.159Z,2.63
2017-12-09T13:18:34.485Z,2.30
2017-12-09T13:21:02.820Z,2.37
2017-12-09T13:23:31.578Z,2.43
2017-12-09T13:25:59.952Z,1.80
2017-12-09T13:28:28.276Z,3.17
2017-12-09T13:30:56.617Z,2.40
2017-12-09T13:33:24.917Z,2.63
2017-12-09T13:35:53.257Z,3.10
2017-12-09T13:38:21.593Z,2.03
2017-12-09T13:40:49.912Z,2.23
2017-12-09T13:43:18.232Z,2.53
2017-12-09T13:45:46.577Z,2.57
2017-12-09T13:48:15.034Z,3.43
2017-12-09T13:50:43.414Z,3.13
2017-12-09T13:53:11.869Z,2.00
2017-12-09T13:55:40.310Z,1.60
2017-12-09T13:58:08.697Z,1.87
2017-12-09T14:00:37.024Z,6.10
2017-12-09T14:03:05.761Z,2.30
2017-12-09T14:05:34.117Z,2.90
2017-12-09T14:08:02.564Z,3.00
2017-12-09T14:10:31.028Z,2.20
2017-12-09T14:12:59.339Z,2.60
2017-12-09T14:15:27.655Z,1.80
2017-12-09T14:17:56.004Z,3.10
2017-12-09T14:20:24.319Z,3.00
2017-12-09T14:22:52.664Z,2.60
2017-12-09T14:25:20.958Z,2.53
2017-12-09T14:27:49.468Z,1.93
2017-12-09T14:30:17.815Z,2.10
2017-12-09T14:32:46.199Z,2.00
2017-12-09T14:35:14.526Z,2.97
2017-12-09T14:37:43.041Z,3.00
2017-12-09T14:42:50.910Z,1.93
2017-12-09T14:45:19.676Z,2.60
2017-12-09T14:47:48.719Z,2.30
2017-12-09T14:50:17.276Z,2.30
2017-12-09T14:52:46.091Z,2.10
2017-12-09T14:55:14.468Z,2.20
2017-12-09T14:57:43.808Z,1.67
2017-12-09T15:00:12.448Z,2.53
2017-12-09T15:02:40.791Z,2.20
2017-12-09T15:05:09.874Z,2.30
2017-12-09T15:07:38.231Z,2.27
2017-12-09T15:12:42.657Z,3.17
2017-12-09T15:15:10.968Z,2.63
2017-12-09T15:17:39.480Z,2.80
2017-12-09T15:20:07.795Z,2.90
2017-12-09T15:22:37.664Z,2.57
2017-12-09T15:25:07.294Z,2.43
2017-12-09T15:27:35.818Z,2.33
2017-12-09T15:30:07.749Z,2.63
2017-12-09T15:32:36.318Z,2.47
2017-12-09T15:35:05.208Z,2.93
2017-12-09T15:37:34.451Z,2.47
2017-12-09T15:40:02.810Z,2.33
2017-12-09T15:42:31.288Z,2.37
2017-12-09T15:45:00.153Z,3.07
2017-12-09T15:47:28.509Z,2.67
2017-12-09T15:49:56.963Z,2.77
2017-12-09T15:52:25.707Z,3.00
2017-12-09T15:54:54.108Z,3.97
2017-12-09T15:57:22.459Z,2.60
2017-12-09T15:59:54.540Z,3.00
2017-12-09T16:02:23.003Z,2.70
2017-12-09T16:04:51.579Z,2.80
2017-12-09T16:09:52.387Z,3.17
2017-12-09T16:12:21.288Z,2.70
2017-12-09T16:14:49.736Z,2.23
2017-12-09T16:17:18.095Z,3.80
2017-12-09T16:19:46.477Z,2.57
2017-12-09T16:22:14.910Z,3.20
2017-12-09T16:24:43.260Z,2.90
2017-12-09T16:27:11.600Z,3.00
2017-12-09T16:29:40.012Z,3.10
2017-12-09T16:32:08.350Z,3.53
2017-12-09T16:34:37.589Z,3.43
2017-12-09T16:37:05.933Z,3.30
2017-12-09T16:39:34.311Z,2.80
2017-12-09T16:42:02.941Z,2.20
2017-12-09T16:47:04.015Z,2.87
2017-12-09T16:49:32.478Z,2.63
2017-12-09T16:52:00.967Z,2.77
2017-12-09T16:54:29.303Z,2.73
2017-12-09T16:56:57.715Z,3.10
2017-12-09T16:59:26.887Z,2.70
2017-12-09T17:01:55.263Z,2.90
2017-12-09T17:04:23.695Z,3.50
2017-12-09T17:09:29.065Z,2.50
2017-12-09T17:14:32.784Z,2.40
2017-12-09T17:17:04.018Z,3.33
2017-12-09T17:19:32.422Z,3.60
2017-12-09T17:24:37.729Z,2.97
2017-12-09T17:27:06.474Z,2.70
2017-12-09T17:29:34.859Z,2.43
2017-12-09T17:32:03.285Z,3.37
2017-12-09T17:34:42.982Z,2.43
2017-12-09T17:37:11.383Z,2.77
2017-12-09T17:39:39.780Z,3.33
2017-12-09T17:42:08.119Z,2.90
2017-12-09T17:44:36.596Z,3.40
2017-12-09T17:47:05.046Z,2.73
2017-12-09T17:52:06.701Z,3.00
2017-12-09T17:54:35.281Z,3.30
2017-12-09T17:57:03.633Z,3.17
2017-12-09T18:02:05.621Z,3.87
2017-12-09T18:04:34.194Z,3.10
2017-12-09T18:07:02.605Z,2.70
2017-12-09T18:09:30.942Z,2.60
2017-12-09T18:11:59.374Z,2.97
2017-12-09T18:14:27.713Z,3.13
2017-12-09T18:16:59.656Z,3.63
2017-12-09T18:19:28.161Z,2.90
2017-12-09T18:29:34.718Z,3.10
2017-12-09T18:32:03.436Z,3.13
2017-12-09T18:34:34.542Z,3.27
2017-12-09T18:37:03.081Z,3.10
2017-12-09T18:39:31.422Z,2.83
2017-12-09T18:41:59.868Z,3.60
2017-12-09T18:47:06.426Z,3.60
2017-12-09T18:49:34.735Z,2.70
2017-12-09T18:52:03.411Z,3.67
2017-12-09T18:54:31.751Z,2.80
2017-12-09T18:57:00.145Z,3.00
2017-12-09T19:02:02.381Z,3.80
2017-12-09T19:04:30.778Z,2.83
2017-12-09T19:06:59.261Z,3.40
2017-12-09T19:12:00.186Z,3.00
2017-12-09T19:14:29.118Z,2.90
2017-12-09T19:16:57.479Z,3.07
2017-12-09T19:19:25.801Z,3.53
2017-12-09T19:21:54.708Z,2.60
2017-12-09T19:24:23.721Z,3.20
2017-12-09T19:26:52.058Z,3.43
2017-12-09T19:29:22.732Z,2.67
2017-12-09T19:31:51.113Z,3.17
2017-12-09T19:34:21.686Z,2.97
2017-12-09T19:39:22.584Z,2.97
2017-12-09T19:41:50.936Z,2.93
2017-12-09T19:44:19.758Z,2.90
2017-12-09T19:49:21.271Z,3.10
2017-12-09T19:51:49.882Z,3.07
2017-12-09T19:54:18.222Z,3.27
2017-12-09T19:56:48.358Z,3.47
2017-12-09T19:59:16.886Z,2.80
2017-12-09T20:01:45.988Z,3.10
2017-12-09T20:04:14.492Z,2.53
2017-12-09T20:06:43.279Z,3.60
2017-12-09T20:09:11.729Z,2.30
2017-12-09T20:14:12.725Z,2.60
2017-12-09T20:16:41.966Z,2.67
2017-12-09T20:19:10.587Z,2.60
2017-12-09T20:21:38.949Z,2.00
2017-12-09T20:24:07.290Z,2.50
2017-12-09T20:26:35.878Z,2.63
2017-12-09T20:29:04.433Z,2.70
2017-12-09T20:31:33.843Z,2.97
2017-12-09T20:34:02.396Z,2.40
2017-12-09T20:36:30.795Z,2.00
2017-12-09T20:38:59.267Z,2.30
2017-12-09T20:41:27.740Z,2.63
2017-12-09T20:43:56.157Z,2.93
2017-12-09T20:46:24.520Z,2.30
2017-12-09T20:48:52.873Z,1.70
2017-12-09T20:51:21.268Z,2.07
2017-12-09T20:56:27.318Z,1.47
2017-12-09T20:58:59.270Z,2.33
2017-12-09T21:04:00.821Z,3.00
2017-12-09T21:06:31.998Z,2.40
2017-12-09T21:09:00.462Z,2.37
2017-12-09T21:14:01.655Z,3.37
2017-12-09T21:16:30.028Z,2.20
2017-12-09T21:19:02.104Z,2.63
2017-12-09T21:21:30.482Z,2.37
2017-12-09T21:26:32.150Z,2.97
2017-12-09T21:29:00.717Z,2.53
2017-12-09T21:31:29.096Z,2.57
2017-12-09T21:33:57.730Z,2.80
2017-12-09T21:36:26.187Z,2.47
2017-12-09T21:38:54.480Z,2.33
2017-12-09T21:41:24.458Z,2.70
2017-12-09T21:43:53.006Z,2.13
2017-12-09T21:46:21.411Z,2.10
2017-12-09T21:48:49.722Z,2.90
2017-12-09T21:51:18.214Z,2.23
2017-12-09T21:53:46.652Z,2.57
2017-12-09T21:56:15.060Z,2.73
2017-12-09T21:58:43.823Z,2.50
2017-12-09T22:01:16.006Z,1.87
2017-12-09T22:03:44.501Z,2.47
2017-12-09T22:06:12.849Z,3.10
2017-12-09T22:08:45.831Z,2.10
2017-12-09T22:11:14.164Z,2.00
2017-12-09T22:16:15.706Z,2.70
2017-12-09T22:18:44.580Z,2.80
2017-12-09T22:21:13.082Z,1.83
2017-12-09T22:23:41.946Z,2.40
2017-12-09T22:26:10.318Z,2.03
2017-12-09T22:28:38.860Z,2.00
2017-12-09T22:31:08.642Z,2.30
2017-12-09T22:33:37.229Z,2.40
2017-12-09T22:36:08.254Z,2.80
2017-12-09T22:38:37.855Z,2.80
2017-12-09T22:41:06.384Z,3.13
2017-12-09T22:43:34.805Z,2.63
2017-12-09T22:46:03.115Z,2.43
2017-12-09T22:48:31.542Z,2.50
2017-12-09T22:51:00.071Z,1.93
2017-12-09T22:53:28.477Z,1.87
2017-12-09T22:56:00.059Z,2.00
2017-12-09T22:58:29.909Z,2.10
2017-12-09T23:00:58.343Z,1.70
2017-12-09T23:03:26.875Z,1.70
2017-12-09T23:05:55.253Z,2.00
2017-12-09T23:08:23.564Z,2.50
2017-12-09T23:10:52.866Z,1.97
2017-12-09T23:13:21.242Z,2.20
2017-12-09T23:15:49.723Z,1.60
2017-12-09T23:18:18.048Z,1.70
2017-12-09T23:20:46.541Z,3.10
2017-12-09T23:23:14.877Z,2.27
2017-12-09T23:25:43.625Z,2.40
2017-12-09T23:28:12.153Z,1.50
2017-12-09T23:30:40.609Z,1.90
2017-12-09T23:33:10.619Z,2.20
2017-12-09T23:35:40.079Z,1.70
2017-12-09T23:38:10.312Z,2.10
2017-12-09T23:40:38.741Z,1.87
2017-12-09T23:43:07.088Z,1.77
2017-12-09T23:45:37.197Z,1.40
2017-12-09T23:48:06.002Z,1.70
2017-12-09T23:50:35.245Z,1.70
2017-12-09T23:53:03.693Z,1.77
2017-12-09T23:55:32.011Z,1.97
2017-12-09T23:58:00.514Z,1.97
